Ceres, Washington
Current Conditions -  °F | °C
As of 5:15 PM on Tuesday 21 Oct 2014 (Local Time) from KCLS Reporting Station
Overcast Overcast  
Wind Chill: 59°   Ceiling: 4800
Heat Index: 59°   Visibility: 10mi
Dew Point: 52°   Wind: 18mph
Humidity: 77%   Direction: 180°S
Pressure: 29.89"   Gusts: NA
Location:  46.6561°N, 122.993°W
Report Text: KCLS 220015Z AUTO 18016KT 10SM OVC048 15/11 A2989 RMK AO2
Loading
Personal Weather Stations






























Interactive Weather Map New forecast layout! Learn more

10-Day Weather Forecast

Advertisements
Track Severe Weather on mobile